createdAt,value
2019-04-05T00:00:32.118Z,98295.45
2019-04-05T00:02:58.479Z,98302.81
2019-04-05T00:05:25.113Z,98309.77
2019-04-05T00:07:51.471Z,98308.94
2019-04-05T00:10:18.290Z,98298.72
2019-04-05T00:12:45.187Z,98303.95
2019-04-05T00:15:15.688Z,98297.06
2019-04-05T00:17:40.240Z,98299.08
2019-04-05T00:20:07.166Z,98303.72
2019-04-05T00:22:33.583Z,98317.94
2019-04-05T00:24:59.975Z,98331.56
2019-04-05T00:27:26.603Z,98334.27
2019-04-05T00:29:54.378Z,98333.80
2019-04-05T00:32:21.006Z,98345.38
2019-04-05T00:34:47.649Z,98337.90
2019-04-05T00:37:14.008Z,98339.14
2019-04-05T00:39:40.723Z,98348.60
2019-04-05T00:42:07.138Z,98349.65
2019-04-05T00:44:33.544Z,98359.33
2019-04-05T00:46:59.885Z,98354.12
2019-04-05T00:49:26.196Z,98360.34
2019-04-05T00:51:52.565Z,98363.58
2019-04-05T00:54:19.228Z,98364.55
2019-04-05T00:56:45.569Z,98381.44
2019-04-05T00:59:11.895Z,98384.61
2019-04-05T01:01:39.344Z,98389.73
2019-04-05T01:04:05.685Z,98391.16
2019-04-05T01:06:32.314Z,98393.53
2019-04-05T01:08:59.159Z,98391.04
2019-04-05T01:11:25.483Z,98395.13
2019-04-05T01:13:52.719Z,98399.50
2019-04-05T01:16:19.047Z,98397.41
2019-04-05T01:18:45.379Z,98397.59
2019-04-05T01:21:17.404Z,98403.67
2019-04-05T01:23:43.846Z,98401.91
2019-04-05T01:26:12.115Z,98409.44
2019-04-05T01:28:38.451Z,98410.13
2019-04-05T01:31:05.141Z,98408.67
2019-04-05T01:33:31.732Z,98417.23
2019-04-05T01:35:58.314Z,98414.88
2019-04-05T01:38:24.648Z,98410.06
2019-04-05T01:40:51.522Z,98417.84
2019-04-05T01:43:17.845Z,98419.17
2019-04-05T01:45:53.626Z,98425.58
2019-04-05T01:48:13.702Z,98443.01
2019-04-05T01:50:40.040Z,98442.04
2019-04-05T01:53:07.553Z,98440.27
2019-04-05T01:55:33.885Z,98440.02
2019-04-05T01:58:00.213Z,98433.72
2019-04-05T02:00:26.847Z,98433.44
2019-04-05T02:02:53.501Z,98437.59
2019-04-05T02:05:20.061Z,98440.64
2019-04-05T02:07:46.684Z,98438.11
2019-04-05T02:10:13.688Z,98438.36
2019-04-05T02:12:40.167Z,98440.64
2019-04-05T02:15:07.297Z,98438.98
2019-04-05T02:17:35.895Z,98441.53
2019-04-05T02:20:05.312Z,98437.19
2019-04-05T02:22:31.617Z,98438.25
2019-04-05T02:24:57.948Z,98443.49
2019-04-05T02:27:24.246Z,98444.09
2019-04-05T02:29:50.700Z,98455.23
2019-04-05T02:32:17.086Z,98460.84
2019-04-05T02:34:43.703Z,98462.75
2019-04-05T02:37:10.073Z,98469.56
2019-04-05T02:39:36.430Z,98473.48
2019-04-05T02:42:02.770Z,98478.25
2019-04-05T02:44:30.189Z,98470.95
2019-04-05T02:46:56.757Z,98465.74
2019-04-05T02:49:26.875Z,98469.77
2019-04-05T02:51:55.224Z,98470.05
2019-04-05T02:54:21.670Z,98469.98
2019-04-05T02:56:49.177Z,98480.49
2019-04-05T02:59:16.826Z,98481.63
2019-04-05T03:01:43.338Z,98474.25
2019-04-05T03:04:10.316Z,98477.25
2019-04-05T03:06:36.753Z,98478.56
2019-04-05T03:09:05.148Z,98487.07
2019-04-05T03:11:32.605Z,98480.94
2019-04-05T03:14:00.972Z,98478.27
2019-04-05T03:16:41.012Z,98475.52
2019-04-05T03:19:11.481Z,98490.03
2019-04-05T03:21:43.367Z,98490.74
2019-04-05T03:24:14.996Z,98496.47
2019-04-05T03:26:46.624Z,98495.19
2019-04-05T03:29:13.394Z,98495.70
2019-04-05T03:31:40.566Z,98503.77
2019-04-05T03:34:07.645Z,98503.14
2019-04-05T03:36:39.012Z,98502.66
2019-04-05T03:39:06.353Z,98502.69
2019-04-05T03:41:33.938Z,98507.30
2019-04-05T03:44:00.557Z,98508.38
2019-04-05T03:46:27.639Z,98510.75
2019-04-05T03:48:54.855Z,98515.84
2019-04-05T03:51:22.440Z,98513.93
2019-04-05T03:53:49.340Z,98522.45
2019-04-05T03:56:16.095Z,98522.75
2019-04-05T03:58:42.900Z,98528.37
2019-04-05T04:01:09.279Z,98529.60
2019-04-05T04:03:35.760Z,98534.09
2019-04-05T04:06:02.722Z,98535.16
2019-04-05T04:08:29.545Z,98528.81
2019-04-05T04:10:56.267Z,98540.40
2019-04-05T04:13:22.663Z,98551.70
2019-04-05T04:15:49.081Z,98547.55
2019-04-05T04:18:15.420Z,98552.40
2019-04-05T04:20:49.339Z,98547.02
2019-04-05T04:23:17.223Z,98557.30
2019-04-05T04:25:44.156Z,98564.19
2019-04-05T04:28:11.072Z,98560.66
2019-04-05T04:30:37.507Z,98563.23
2019-04-05T04:33:04.994Z,98562.99
2019-04-05T04:35:32.220Z,98575.75
2019-04-05T04:37:58.616Z,98572.31
2019-04-05T04:40:25.440Z,98574.69
2019-04-05T04:42:52.481Z,98582.20
2019-04-05T04:45:19.229Z,98584.13
2019-04-05T04:47:45.871Z,98582.20
2019-04-05T04:50:12.399Z,98580.79
2019-04-05T04:52:39.137Z,98589.72
2019-04-05T04:55:06.545Z,98599.12
2019-04-05T04:57:33.454Z,98598.06
2019-04-05T04:59:59.974Z,98604.84
2019-04-05T05:02:26.345Z,98610.66
2019-04-05T05:04:53.084Z,98609.96
2019-04-05T05:07:19.460Z,98609.82
2019-04-05T05:09:46.010Z,98606.17
2019-04-05T05:12:12.378Z,98612.38
2019-04-05T05:14:39.073Z,98614.06
2019-04-05T05:17:05.868Z,98619.09
2019-04-05T05:19:32.199Z,98613.19
2019-04-05T05:21:58.597Z,98616.56
2019-04-05T05:24:25.003Z,98625.31
2019-04-05T05:26:53.188Z,98620.95
2019-04-05T05:29:19.482Z,98632.84
2019-04-05T05:31:46.230Z,98634.23
2019-04-05T05:34:13.030Z,98639.84
2019-04-05T05:36:39.733Z,98640.55
2019-04-05T05:39:06.320Z,98645.52
2019-04-05T05:41:32.729Z,98653.94
2019-04-05T05:43:59.179Z,98649.31
2019-04-05T05:46:25.543Z,98648.68
2019-04-05T05:48:51.918Z,98652.96
2019-04-05T05:51:18.231Z,98652.95
2019-04-05T05:53:44.849Z,98650.77
2019-04-05T05:56:11.188Z,98656.28
2019-04-05T05:58:37.534Z,98664.81
2019-04-05T06:01:03.877Z,98663.21
2019-04-05T06:03:30.238Z,98659.91
2019-04-05T06:06:04.160Z,98654.34
2019-04-05T06:08:25.042Z,98651.94
2019-04-05T06:10:51.397Z,98659.58
2019-04-05T06:13:17.747Z,98662.39
2019-04-05T06:15:44.341Z,98660.40
2019-04-05T06:18:12.689Z,98666.82
2019-04-05T06:20:40.895Z,98674.07
2019-04-05T06:23:07.236Z,98679.69
2019-04-05T06:25:33.589Z,98680.53
2019-04-05T06:28:00.107Z,98670.13
2019-04-05T06:30:28.727Z,98675.72
2019-04-05T06:32:55.168Z,98684.31
2019-04-05T06:35:21.875Z,98680.02
2019-04-05T06:37:48.234Z,98683.83
2019-04-05T06:40:14.531Z,98675.89
2019-04-05T06:42:40.912Z,98672.43
2019-04-05T06:45:07.314Z,98692.23
2019-04-05T06:47:33.717Z,98687.22
2019-04-05T06:50:00.027Z,98685.02
2019-04-05T06:52:26.672Z,98690.83
2019-04-05T06:54:53.332Z,98691.24
2019-04-05T06:57:19.653Z,98699.91
2019-04-05T06:59:46.007Z,98695.80
2019-04-05T07:02:12.309Z,98704.77
2019-04-05T07:04:38.626Z,98703.70
2019-04-05T07:07:04.950Z,98701.91
2019-04-05T07:09:33.924Z,98708.88
2019-04-05T07:11:59.811Z,98705.63
2019-04-05T07:14:27.409Z,98703.69
2019-04-05T07:16:55.209Z,98711.64
2019-04-05T07:19:21.719Z,98721.37
2019-04-05T07:21:48.034Z,98725.15
2019-04-05T07:24:14.405Z,98734.55
2019-04-05T07:26:40.868Z,98732.41
2019-04-05T07:29:07.184Z,98728.27
2019-04-05T07:31:33.546Z,98738.66
2019-04-05T07:34:00.143Z,98737.64
2019-04-05T07:36:26.528Z,98743.83
2019-04-05T07:38:52.861Z,98744.69
2019-04-05T07:41:21.228Z,98735.09
2019-04-05T07:43:47.553Z,98745.42
2019-04-05T07:46:13.928Z,98748.59
2019-04-05T07:48:45.031Z,98752.09
2019-04-05T07:51:09.171Z,98745.66
2019-04-05T07:53:35.541Z,98750.77
2019-04-05T07:56:02.510Z,98746.28
2019-04-05T07:58:29.181Z,98736.95
2019-04-05T08:00:56.207Z,98745.84
2019-04-05T08:03:23.053Z,98740.41
2019-04-05T08:05:50.761Z,98749.05
2019-04-05T08:08:41.239Z,98751.78
2019-04-05T08:11:08.047Z,98749.08
2019-04-05T08:13:37.695Z,98744.19
2019-04-05T08:16:04.640Z,98745.76
2019-04-05T08:18:31.278Z,98745.74
2019-04-05T08:20:57.605Z,98748.53
2019-04-05T08:23:24.233Z,98749.19
2019-04-05T08:25:50.881Z,98739.62
2019-04-05T08:28:17.524Z,98753.02
2019-04-05T08:30:43.874Z,98763.58
2019-04-05T08:33:10.348Z,98756.38
2019-04-05T08:35:36.701Z,98753.38
2019-04-05T08:38:03.741Z,98752.05
2019-04-05T08:40:30.130Z,98750.27
2019-04-05T08:42:56.569Z,98753.55
2019-04-05T08:45:23.175Z,98745.70
2019-04-05T08:47:49.814Z,98744.33
2019-04-05T08:50:16.275Z,98744.53
2019-04-05T08:52:42.606Z,98736.61
2019-04-05T08:55:09.041Z,98729.53
2019-04-05T08:57:35.661Z,98722.66
2019-04-05T09:00:06.490Z,98727.72
2019-04-05T09:02:33.147Z,98724.69
2019-04-05T09:04:59.569Z,98727.13
2019-04-05T09:07:26.184Z,98722.80
2019-04-05T09:09:52.516Z,98718.05
2019-04-05T09:12:19.129Z,98714.27
2019-04-05T09:14:45.485Z,98718.34
2019-04-05T09:17:12.819Z,98717.93
2019-04-05T09:19:39.131Z,98707.46
2019-04-05T09:22:06.588Z,98707.93
2019-04-05T09:24:33.277Z,98713.19
2019-04-05T09:27:01.040Z,98709.94
2019-04-05T09:29:28.811Z,98700.73
2019-04-05T09:31:55.436Z,98705.90
2019-04-05T09:34:23.178Z,98702.81
2019-04-05T09:36:49.744Z,98705.45
2019-04-05T09:39:16.063Z,98698.11
2019-04-05T09:41:42.458Z,98701.04
2019-04-05T09:44:08.769Z,98701.73
2019-04-05T09:46:46.064Z,98696.79
2019-04-05T09:49:03.351Z,98702.61
2019-04-05T09:51:30.149Z,98702.17
2019-04-05T09:53:56.459Z,98700.30
2019-04-05T09:56:22.792Z,98693.94
2019-04-05T09:58:49.108Z,98697.63
2019-04-05T10:01:15.836Z,98695.11
2019-04-05T10:03:42.186Z,98688.06
2019-04-05T10:06:08.511Z,98691.01
2019-04-05T10:08:35.120Z,98683.33
2019-04-05T10:11:01.452Z,98682.96
2019-04-05T10:13:27.983Z,98680.83
2019-04-05T10:15:54.418Z,98679.34
2019-04-05T10:18:21.128Z,98686.62
2019-04-05T10:20:47.486Z,98686.79
2019-04-05T10:23:14.150Z,98698.78
2019-04-05T10:25:40.517Z,98687.98
2019-04-05T10:28:07.110Z,98686.05
2019-04-05T10:30:33.457Z,98682.70
2019-04-05T10:32:59.785Z,98684.30
2019-04-05T10:35:26.165Z,98681.38
2019-04-05T10:37:52.520Z,98683.31
2019-04-05T10:40:18.817Z,98683.63
2019-04-05T10:42:45.109Z,98682.43
2019-04-05T10:45:12.804Z,98685.49
2019-04-05T10:47:39.264Z,98679.27
2019-04-05T10:50:09.835Z,98677.75
2019-04-05T10:52:37.258Z,98675.39
2019-04-05T10:55:04.550Z,98686.52
2019-04-05T10:57:31.194Z,98684.58
2019-04-05T10:59:57.810Z,98675.27
2019-04-05T11:02:25.150Z,98680.13
2019-04-05T11:04:51.480Z,98679.65
2019-04-05T11:07:19.169Z,98675.02
2019-04-05T11:09:45.488Z,98678.36
2019-04-05T11:12:12.129Z,98676.31
2019-04-05T11:14:38.474Z,98671.91
2019-04-05T11:17:05.233Z,98676.50
2019-04-05T11:19:34.821Z,98674.29
2019-04-05T11:22:01.133Z,98680.56
2019-04-05T11:24:27.876Z,98674.50
2019-04-05T11:26:54.197Z,98677.41
2019-04-05T11:29:20.611Z,98671.81
2019-04-05T11:31:57.071Z,98666.55
2019-04-05T11:34:16.080Z,98660.19
2019-04-05T11:36:42.811Z,98668.99
2019-04-05T11:39:09.575Z,98668.06
2019-04-05T11:41:36.510Z,98664.19
2019-04-05T11:44:04.107Z,98672.81
2019-04-05T11:46:34.510Z,98672.09
2019-04-05T11:49:03.845Z,98668.05
2019-04-05T11:51:29.800Z,98681.55
2019-04-05T11:53:56.464Z,98681.13
2019-04-05T11:56:23.081Z,98676.97
2019-04-05T11:58:50.558Z,98673.27
2019-04-05T12:01:19.787Z,98671.09
2019-04-05T12:03:46.140Z,98668.88
2019-04-05T12:06:12.457Z,98667.73
2019-04-05T12:08:39.907Z,98670.00
2019-04-05T12:11:06.258Z,98661.86
2019-04-05T12:13:33.502Z,98667.28
2019-04-05T12:16:00.041Z,98668.16
2019-04-05T12:18:26.718Z,98667.09
2019-04-05T12:21:00.029Z,98668.28
2019-04-05T12:23:33.394Z,98662.91
2019-04-05T12:26:07.949Z,98665.72
2019-04-05T12:28:34.277Z,98659.29
2019-04-05T12:31:01.380Z,98658.74
2019-04-05T12:33:27.912Z,98661.50
2019-04-05T12:35:56.567Z,98656.38
2019-04-05T12:38:31.555Z,98656.21
2019-04-05T12:41:01.703Z,98657.28
2019-04-05T12:43:28.343Z,98651.52
2019-04-05T12:45:54.756Z,98645.34
2019-04-05T12:48:21.657Z,98643.33
2019-04-05T12:51:00.514Z,98642.79
2019-04-05T12:53:17.059Z,98641.88
2019-04-05T12:55:43.687Z,98638.18
2019-04-05T12:58:10.349Z,98639.58
2019-04-05T13:00:39.035Z,98631.56
2019-04-05T13:03:05.506Z,98639.20
2019-04-05T13:05:32.140Z,98634.80
2019-04-05T13:07:58.814Z,98652.36
2019-04-05T13:10:26.604Z,98646.13
2019-04-05T13:12:56.832Z,98638.28
2019-04-05T13:15:22.212Z,98641.36
2019-04-05T13:17:48.862Z,98643.66
2019-04-05T13:20:15.513Z,98642.67
2019-04-05T13:22:41.812Z,98643.63
2019-04-05T13:25:10.819Z,98648.16
2019-04-05T13:27:36.848Z,98646.89
2019-04-05T13:30:06.176Z,98651.63
2019-04-05T13:32:32.503Z,98654.63
2019-04-05T13:34:59.221Z,98655.88
2019-04-05T13:37:25.572Z,98655.86
2019-04-05T13:39:53.950Z,98662.92
2019-04-05T13:42:20.387Z,98651.61
2019-04-05T13:44:46.692Z,98645.52
2019-04-05T13:47:13.441Z,98650.55
2019-04-05T13:49:40.641Z,98638.31
2019-04-05T13:52:12.065Z,98635.36
2019-04-05T13:54:38.330Z,98642.74
2019-04-05T13:57:08.578Z,98648.05
2019-04-05T13:59:35.772Z,98645.48
2019-04-05T14:02:06.443Z,98642.52
2019-04-05T14:04:30.876Z,98644.14
2019-04-05T14:06:57.192Z,98649.47
2019-04-05T14:09:23.839Z,98637.46
2019-04-05T14:11:50.468Z,98649.81
2019-04-05T14:14:16.818Z,98632.80
2019-04-05T14:16:43.675Z,98636.30
2019-04-05T14:19:10.049Z,98634.95
2019-04-05T14:21:40.831Z,98636.45
2019-04-05T14:24:07.387Z,98621.56
2019-04-05T14:26:33.697Z,98626.03
2019-04-05T14:29:03.426Z,98621.61
2019-04-05T14:31:31.589Z,98631.52
2019-04-05T14:33:58.518Z,98629.05
2019-04-05T14:36:25.137Z,98626.55
2019-04-05T14:38:51.486Z,98618.16
2019-04-05T14:41:18.107Z,98618.49
2019-04-05T14:43:45.040Z,98603.66
2019-04-05T14:46:12.316Z,98614.19
2019-04-05T14:48:38.958Z,98609.91
2019-04-05T14:51:05.330Z,98610.95
2019-04-05T14:53:32.308Z,98609.03
2019-04-05T14:55:59.648Z,98602.98
2019-04-05T14:58:26.129Z,98611.52
2019-04-05T15:00:52.759Z,98610.82
2019-04-05T15:03:19.076Z,98608.36
2019-04-05T15:05:45.746Z,98605.11
2019-04-05T15:08:12.401Z,98607.09
2019-04-05T15:10:39.816Z,98610.47
2019-04-05T15:13:06.266Z,98617.95
2019-04-05T15:15:33.239Z,98614.30
2019-04-05T15:17:59.684Z,98616.14
2019-04-05T15:20:26.143Z,98613.80
2019-04-05T15:22:52.638Z,98615.69
2019-04-05T15:25:21.515Z,98613.33
2019-04-05T15:27:51.725Z,98608.23
2019-04-05T15:30:16.632Z,98608.19
2019-04-05T15:32:43.393Z,98607.30
2019-04-05T15:35:10.014Z,98609.48
2019-04-05T15:37:37.726Z,98600.03
2019-04-05T15:40:06.150Z,98605.61
2019-04-05T15:42:33.469Z,98611.52
2019-04-05T15:44:59.808Z,98607.77
2019-04-05T15:47:26.475Z,98607.33
2019-04-05T15:49:53.343Z,98604.63
2019-04-05T15:52:20.083Z,98608.84
2019-04-05T15:54:46.406Z,98605.16
2019-04-05T15:57:12.715Z,98610.49
2019-04-05T15:59:44.988Z,98607.00
2019-04-05T16:02:11.322Z,98609.06
2019-04-05T16:04:37.722Z,98610.17
2019-04-05T16:07:04.054Z,98607.61
2019-04-05T16:09:30.909Z,98607.52
2019-04-05T16:11:57.974Z,98603.17
2019-04-05T16:14:24.611Z,98606.63
2019-04-05T16:16:51.249Z,98606.74
2019-04-05T16:19:18.012Z,98606.73
2019-04-05T16:21:44.939Z,98604.89
2019-04-05T16:24:11.276Z,98607.52
2019-04-05T16:26:41.637Z,98607.31
2019-04-05T16:29:08.047Z,98611.76
2019-04-05T16:31:34.778Z,98617.25
2019-04-05T16:34:01.130Z,98616.07
2019-04-05T16:36:30.684Z,98619.05
2019-04-05T16:38:55.886Z,98619.20
2019-04-05T16:41:24.420Z,98622.37
2019-04-05T16:43:50.741Z,98619.89
2019-04-05T16:46:17.450Z,98627.45
2019-04-05T16:48:43.940Z,98622.36
2019-04-05T16:51:10.758Z,98629.39
2019-04-05T16:53:39.119Z,98624.21
2019-04-05T16:56:05.490Z,98622.45
2019-04-05T16:58:31.917Z,98628.20
2019-04-05T17:00:58.276Z,98630.28
2019-04-05T17:03:24.757Z,98627.39
2019-04-05T17:05:51.526Z,98632.38
2019-04-05T17:08:17.975Z,98626.75
2019-04-05T17:10:44.580Z,98628.69
2019-04-05T17:13:11.244Z,98626.78
2019-04-05T17:15:37.551Z,98624.41
2019-04-05T17:18:06.115Z,98622.91
2019-04-05T17:20:32.755Z,98623.19
2019-04-05T17:22:59.089Z,98621.56
2019-04-05T17:25:26.548Z,98623.63
2019-04-05T17:27:53.200Z,98619.69
2019-04-05T17:30:19.578Z,98621.10
2019-04-05T17:32:46.021Z,98622.88
2019-04-05T17:35:12.423Z,98628.84
2019-04-05T17:37:38.772Z,98633.17
2019-04-05T17:40:06.289Z,98634.28
2019-04-05T17:42:34.766Z,98631.02
2019-04-05T17:45:01.501Z,98631.84
2019-04-05T17:47:28.336Z,98634.14
2019-04-05T17:49:54.972Z,98635.75
2019-04-05T17:52:21.420Z,98634.92
2019-04-05T17:54:48.062Z,98640.23
2019-04-05T17:57:14.940Z,98635.99
2019-04-05T17:59:42.226Z,98645.72
2019-04-05T18:02:08.553Z,98648.09
2019-04-05T18:04:34.915Z,98648.06
2019-04-05T18:07:01.652Z,98652.86
2019-04-05T18:09:29.255Z,98662.19
2019-04-05T18:11:55.614Z,98658.66
2019-04-05T18:14:22.027Z,98656.23
2019-04-05T18:16:48.724Z,98664.10
2019-04-05T18:19:15.347Z,98664.26
2019-04-05T18:21:41.753Z,98669.00
2019-04-05T18:24:08.106Z,98662.89
2019-04-05T18:26:34.806Z,98666.66
2019-04-05T18:29:01.127Z,98660.34
2019-04-05T18:31:27.561Z,98667.69
2019-04-05T18:33:54.283Z,98663.64
2019-04-05T18:36:20.647Z,98667.23
2019-04-05T18:38:48.846Z,98666.70
2019-04-05T18:41:15.244Z,98671.00
2019-04-05T18:43:41.885Z,98671.92
2019-04-05T18:46:09.405Z,98677.39
2019-04-05T18:48:35.741Z,98680.92
2019-04-05T18:51:02.381Z,98676.82
2019-04-05T18:53:37.534Z,98671.48
2019-04-05T18:55:57.067Z,98675.73
2019-04-05T18:58:23.435Z,98672.53
2019-04-05T19:00:50.069Z,98674.31
2019-04-05T19:03:16.529Z,98669.31
2019-04-05T19:05:43.337Z,98682.44
2019-04-05T19:08:09.736Z,98677.59
2019-04-05T19:10:37.506Z,98679.64
2019-04-05T19:13:04.685Z,98678.85
2019-04-05T19:15:31.323Z,98686.95
2019-04-05T19:17:57.649Z,98697.73
2019-04-05T19:20:24.292Z,98690.63
2019-04-05T19:22:51.843Z,98690.80
2019-04-05T19:25:18.490Z,98689.37
2019-04-05T19:27:45.241Z,98691.23
2019-04-05T19:50:04.717Z,98696.30
2019-04-05T19:52:31.369Z,98693.36
2019-04-05T19:55:01.414Z,98692.25
2019-04-05T19:57:28.059Z,98689.66
2019-04-05T19:59:56.023Z,98685.13
2019-04-05T20:02:22.733Z,98691.93
2019-04-05T20:04:50.816Z,98693.45
2019-04-05T20:07:17.193Z,98702.06
2019-04-05T20:09:44.004Z,98704.12
2019-04-05T20:12:10.755Z,98703.84
2019-04-05T20:14:37.789Z,98700.55
2019-04-05T20:17:04.151Z,98708.67
2019-04-05T20:19:30.554Z,98702.95
2019-04-05T20:21:58.080Z,98711.19
2019-04-05T20:24:25.031Z,98711.14
2019-04-05T20:26:51.587Z,98705.92
2019-04-05T20:29:18.569Z,98716.81
2019-04-05T20:31:45.064Z,98714.20
2019-04-05T20:34:11.835Z,98716.84
2019-04-05T20:36:38.383Z,98717.19
2019-04-05T20:39:06.768Z,98716.22
2019-04-05T20:41:33.435Z,98712.78
2019-04-05T20:44:00.220Z,98726.15
2019-04-05T20:46:26.840Z,98727.80
2019-04-05T20:48:53.197Z,98720.53
2019-04-05T20:51:19.625Z,98722.03
2019-04-05T20:53:45.981Z,98723.36
2019-04-05T20:56:12.378Z,98719.04
2019-04-05T20:58:38.739Z,98724.47
2019-04-05T21:01:10.807Z,98723.80
2019-04-05T21:03:40.121Z,98729.72
2019-04-05T21:06:06.722Z,98730.03
2019-04-05T21:08:33.222Z,98732.63
2019-04-05T21:10:59.551Z,98732.80
2019-04-05T21:13:26.259Z,98730.83
2019-04-05T21:15:53.017Z,98728.02
2019-04-05T21:18:19.386Z,98736.06
2019-04-05T21:20:45.726Z,98736.86
2019-04-05T21:23:12.071Z,98742.80
2019-04-05T21:25:39.477Z,98750.20
2019-04-05T21:28:08.430Z,98757.27
2019-04-05T21:30:34.797Z,98752.49
2019-04-05T21:33:01.145Z,98754.59
2019-04-05T21:35:27.919Z,98758.87
2019-04-05T21:37:54.274Z,98760.68
2019-04-05T21:40:21.749Z,98767.89
2019-04-05T21:42:48.205Z,98756.84
2019-04-05T21:45:14.878Z,98767.70
2019-04-05T21:47:41.232Z,98766.97
2019-04-05T21:50:09.993Z,98773.54
2019-04-05T21:52:36.397Z,98773.20
2019-04-05T21:55:05.110Z,98769.25
2019-04-05T21:57:31.623Z,98766.75
2019-04-05T21:59:58.288Z,98781.01
2019-04-05T22:02:24.923Z,98773.67
2019-04-05T22:04:51.565Z,98775.16
2019-04-05T22:07:17.994Z,98777.12
2019-04-05T22:09:44.360Z,98784.36
2019-04-05T22:12:11.179Z,98778.92
2019-04-05T22:14:37.797Z,98784.98
2019-04-05T22:17:04.126Z,98791.08
2019-04-05T22:19:30.434Z,98785.97
2019-04-05T22:21:57.105Z,98789.19
2019-04-05T22:24:23.474Z,98787.05
2019-04-05T22:26:49.781Z,98794.59
2019-04-05T22:29:16.529Z,98798.11
2019-04-05T22:31:42.851Z,98794.06
2019-04-05T22:34:09.198Z,98802.85
2019-04-05T22:36:35.526Z,98801.80
2019-04-05T22:39:01.990Z,98814.09
2019-04-05T22:41:30.623Z,98814.72
2019-04-05T22:43:56.963Z,98817.44
2019-04-05T22:46:23.309Z,98815.92
2019-04-05T22:48:49.641Z,98818.89
2019-04-05T22:51:16.040Z,98816.44
2019-04-05T22:53:42.375Z,98811.87
2019-04-05T22:56:09.021Z,98816.66
2019-04-05T22:58:35.384Z,98816.66
2019-04-05T23:01:01.709Z,98820.09
2019-04-05T23:03:28.034Z,98827.11
2019-04-05T23:05:54.342Z,98829.19
2019-04-05T23:08:20.670Z,98826.68
2019-04-05T23:10:47.007Z,98827.28
2019-04-05T23:13:13.354Z,98826.94
2019-04-05T23:15:39.653Z,98826.87
2019-04-05T23:18:05.999Z,98824.67
2019-04-05T23:20:32.321Z,98826.41
2019-04-05T23:22:58.690Z,98823.06
2019-04-05T23:25:25.019Z,98826.09
2019-04-05T23:27:51.660Z,98823.41
2019-04-05T23:30:19.130Z,98823.64
2019-04-05T23:32:45.438Z,98827.86
2019-04-05T23:35:12.286Z,98818.74
2019-04-05T23:37:38.580Z,98818.77
2019-04-05T23:40:05.715Z,98822.53
2019-04-05T23:42:32.013Z,98811.48
2019-04-05T23:44:58.501Z,98823.78
2019-04-05T23:47:25.154Z,98822.68
2019-04-05T23:49:51.496Z,98817.12
2019-04-05T23:52:17.948Z,98820.25
2019-04-05T23:54:45.287Z,98820.97
2019-04-05T23:57:11.678Z,98820.58
2019-04-05T23:59:38.356Z,98819.48
